Cookstown, United Kingdom
Current Conditions -  °F | °C
As of 4:50 PM on Saturday 25 Oct 2014 (Local Time) from EGAA Reporting Station
Scattered Clouds Scattered Clouds  
Wind Chill: 54°   Ceiling: Unl
Heat Index: 54°   Visibility: 6mi
Dew Point: 46°   Wind: 15mph
Humidity: 77%   Direction: 230°SW
Pressure: 29.77"   Gusts: NA
Location:  54.64°N, 6.75°W
Report Text: EGAA 251550Z 23013KT 9999 SCT035 12/08 Q1008
Loading
Personal Weather Stations






























Interactive Weather Map
Tropical Storm Tracking
New forecast layout! Learn more

10-Day Weather Forecast

Advertisements
Track Severe Weather on mobile